createdAt,value
2018-08-18T00:00:34.971Z,18.66
2018-08-18T00:03:05.282Z,18.63
2018-08-18T00:05:34.817Z,18.70
2018-08-18T00:08:04.660Z,18.82
2018-08-18T00:10:34.242Z,18.75
2018-08-18T00:13:04.897Z,18.75
2018-08-18T00:15:34.616Z,18.57
2018-08-18T00:18:04.392Z,18.66
2018-08-18T00:20:34.764Z,18.61
2018-08-18T00:23:04.616Z,18.50
2018-08-18T00:25:34.002Z,18.48
2018-08-18T00:28:18.378Z,18.35
2018-08-18T00:30:48.496Z,18.36
2018-08-18T00:33:18.113Z,18.45
2018-08-18T00:35:47.530Z,18.53
2018-08-18T00:38:17.817Z,18.41
2018-08-18T00:40:47.329Z,18.39
2018-08-18T00:43:18.012Z,18.33
2018-08-18T00:45:47.873Z,18.35
2018-08-18T00:48:17.326Z,18.32
2018-08-18T00:50:48.590Z,18.26
2018-08-18T00:53:18.845Z,18.33
2018-08-18T00:55:48.475Z,18.23
2018-08-18T00:58:25.670Z,18.25
2018-08-18T01:01:00.560Z,18.28
2018-08-18T01:03:30.529Z,18.24
2018-08-18T01:06:15.954Z,18.23
2018-08-18T01:08:46.137Z,18.18
2018-08-18T01:11:16.685Z,18.16
2018-08-18T01:13:46.311Z,18.12
2018-08-18T01:16:16.082Z,18.06
2018-08-18T01:18:45.769Z,17.95
2018-08-18T01:21:16.655Z,18.01
2018-08-18T01:23:46.867Z,18.01
2018-08-18T01:26:17.121Z,17.49
2018-08-18T01:28:47.273Z,17.89
2018-08-18T01:31:25.285Z,17.94
2018-08-18T01:33:55.836Z,17.87
2018-08-18T01:36:25.154Z,17.91
2018-08-18T01:38:55.060Z,17.85
2018-08-18T01:41:26.378Z,17.81
2018-08-18T01:44:10.897Z,17.88
2018-08-18T01:46:40.914Z,17.84
2018-08-18T01:49:30.561Z,17.77
2018-08-18T01:52:02.783Z,17.72
2018-08-18T01:54:32.663Z,17.74
2018-08-18T01:57:06.962Z,17.87
2018-08-18T01:59:38.233Z,17.85
2018-08-18T02:02:11.978Z,17.74
2018-08-18T02:04:42.433Z,17.67
2018-08-18T02:07:22.041Z,17.62
2018-08-18T02:09:51.572Z,17.56
2018-08-18T02:12:21.293Z,17.49
2018-08-18T02:14:51.613Z,17.56
2018-08-18T02:17:37.545Z,17.67
2018-08-18T02:20:08.969Z,17.73
2018-08-18T02:22:38.225Z,17.56
2018-08-18T02:25:07.932Z,17.57
2018-08-18T02:27:38.668Z,17.65
2018-08-18T02:30:15.357Z,17.61
2018-08-18T02:32:45.282Z,17.52
2018-08-18T02:35:14.870Z,17.53
2018-08-18T02:37:44.535Z,17.66
2018-08-18T02:40:16.125Z,17.62
2018-08-18T02:42:45.889Z,17.56
2018-08-18T02:45:16.213Z,17.47
2018-08-18T02:47:46.115Z,17.47
2018-08-18T02:50:15.712Z,17.44
2018-08-18T02:52:45.435Z,17.42
2018-08-18T02:55:14.966Z,17.39
2018-08-18T02:57:45.146Z,17.38
2018-08-18T03:00:27.730Z,17.31
2018-08-18T03:02:57.356Z,17.28
2018-08-18T03:05:27.203Z,17.33
2018-08-18T03:07:56.975Z,17.30
2018-08-18T03:10:27.746Z,17.29
2018-08-18T03:13:01.479Z,17.26
2018-08-18T03:16:03.894Z,17.07
2018-08-18T03:18:42.714Z,16.95
2018-08-18T03:21:12.095Z,16.95
2018-08-18T03:23:52.934Z,16.98
2018-08-18T03:26:43.550Z,16.97
2018-08-18T03:29:14.207Z,17.00
2018-08-18T03:31:43.963Z,17.01
2018-08-18T03:34:13.858Z,17.00
2018-08-18T03:36:45.502Z,17.02
2018-08-18T03:39:22.337Z,16.99
2018-08-18T03:41:54.670Z,16.94
2018-08-18T03:44:24.054Z,17.02
2018-08-18T03:46:53.656Z,17.05
2018-08-18T03:49:23.578Z,17.07
2018-08-18T03:51:54.283Z,16.99
2018-08-18T03:54:24.518Z,17.00
2018-08-18T03:56:54.402Z,17.08
2018-08-18T03:59:23.870Z,17.05
2018-08-18T04:01:56.618Z,17.00
2018-08-18T04:04:33.973Z,17.00
2018-08-18T04:07:04.894Z,16.97
2018-08-18T04:09:36.316Z,16.86
2018-08-18T04:12:07.134Z,16.90
2018-08-18T04:14:38.426Z,16.97
2018-08-18T04:17:18.914Z,16.94
2018-08-18T04:19:48.909Z,17.00
2018-08-18T04:22:18.613Z,16.93
2018-08-18T04:24:49.120Z,16.96
2018-08-18T04:27:39.583Z,17.01
2018-08-18T04:30:15.068Z,17.04
2018-08-18T04:33:06.413Z,17.10
2018-08-18T04:35:36.255Z,17.05
2018-08-18T04:38:06.041Z,17.05
2018-08-18T04:40:36.923Z,17.07
2018-08-18T04:43:06.818Z,17.07
2018-08-18T04:45:36.521Z,17.04
2018-08-18T04:48:06.601Z,17.05
2018-08-18T04:50:36.381Z,17.07
2018-08-18T04:53:06.137Z,17.07
2018-08-18T04:55:35.661Z,17.02
2018-08-18T04:58:06.160Z,17.05
2018-08-18T05:00:36.107Z,17.00
2018-08-18T05:03:06.147Z,17.09
2018-08-18T05:05:35.876Z,17.11
2018-08-18T05:08:05.350Z,17.23
2018-08-18T05:10:35.190Z,17.24
2018-08-18T05:13:04.933Z,17.33
2018-08-18T05:15:34.568Z,17.34
2018-08-18T05:18:04.272Z,17.44
2018-08-18T05:20:33.942Z,17.49
2018-08-18T05:23:18.071Z,17.48
2018-08-18T05:25:47.802Z,17.52
2018-08-18T05:28:17.894Z,17.56
2018-08-18T05:30:51.875Z,17.61
2018-08-18T05:33:21.285Z,17.68
2018-08-18T05:35:50.810Z,17.84
2018-08-18T05:38:20.637Z,17.87
2018-08-18T05:40:50.281Z,17.96
2018-08-18T05:43:20.071Z,18.04
2018-08-18T05:45:49.816Z,18.06
2018-08-18T05:48:19.428Z,18.18
2018-08-18T05:50:49.545Z,18.30
2018-08-18T05:53:37.958Z,18.46
2018-08-18T05:56:07.473Z,18.60
2018-08-18T05:58:51.798Z,18.72
2018-08-18T06:01:31.904Z,18.87
2018-08-18T06:04:06.778Z,18.89
2018-08-18T06:06:36.363Z,18.85
2018-08-18T06:09:08.174Z,18.88
2018-08-18T06:11:37.894Z,19.01
2018-08-18T06:14:08.285Z,19.10
2018-08-18T06:16:37.896Z,19.30
2018-08-18T06:19:08.733Z,19.54
2018-08-18T06:21:38.440Z,19.59
2018-08-18T06:24:08.049Z,19.72
2018-08-18T06:26:37.691Z,19.79
2018-08-18T06:29:07.395Z,19.96
2018-08-18T06:31:52.087Z,19.78
2018-08-18T06:34:21.704Z,19.71
2018-08-18T06:36:51.450Z,19.87
2018-08-18T06:39:21.268Z,19.88
2018-08-18T06:41:50.973Z,19.93
2018-08-18T06:44:24.857Z,20.04
2018-08-18T06:46:54.521Z,20.12
2018-08-18T06:49:24.419Z,20.27
2018-08-18T06:51:53.894Z,20.48
2018-08-18T06:54:23.697Z,20.60
2018-08-18T06:56:53.258Z,20.46
2018-08-18T06:59:23.229Z,20.81
2018-08-18T07:01:52.639Z,20.90
2018-08-18T07:04:26.253Z,21.09
2018-08-18T07:06:56.103Z,21.21
2018-08-18T07:09:25.970Z,21.35
2018-08-18T07:11:55.591Z,21.38
2018-08-18T07:14:25.446Z,21.47
2018-08-18T07:16:55.029Z,21.50
2018-08-18T07:19:24.540Z,21.43
2018-08-18T07:21:54.271Z,21.42
2018-08-18T07:24:23.981Z,21.48
2018-08-18T07:26:53.801Z,21.46
2018-08-18T07:29:23.628Z,21.57
2018-08-18T07:31:53.322Z,21.61
2018-08-18T07:34:23.185Z,21.74
2018-08-18T07:36:53.149Z,21.94
2018-08-18T07:39:22.857Z,21.97
2018-08-18T07:41:52.543Z,22.07
2018-08-18T07:44:22.612Z,22.17
2018-08-18T07:46:52.306Z,22.44
2018-08-18T07:49:22.077Z,22.34
2018-08-18T07:51:52.869Z,22.34
2018-08-18T07:54:22.714Z,22.34
2018-08-18T07:56:52.395Z,22.46
2018-08-18T07:59:22.534Z,22.45
2018-08-18T08:01:52.133Z,22.64
2018-08-18T08:04:24.353Z,22.84
2018-08-18T08:06:54.357Z,22.96
2018-08-18T08:09:24.129Z,22.91
2018-08-18T08:11:53.822Z,22.91
2018-08-18T08:14:23.399Z,22.99
2018-08-18T08:16:52.897Z,23.08
2018-08-18T08:19:23.158Z,23.17
2018-08-18T08:21:52.926Z,23.31
2018-08-18T08:24:23.042Z,23.46
2018-08-18T08:26:53.088Z,23.59
2018-08-18T08:29:26.686Z,23.50
2018-08-18T08:31:57.025Z,23.71
2018-08-18T08:34:29.752Z,23.71
2018-08-18T08:36:59.354Z,23.92
2018-08-18T08:39:29.386Z,24.03
2018-08-18T08:41:59.086Z,24.06
2018-08-18T08:44:29.073Z,24.29
2018-08-18T08:47:05.261Z,24.36
2018-08-18T08:49:34.969Z,24.32
2018-08-18T08:52:05.125Z,24.36
2018-08-18T08:54:39.772Z,24.45
2018-08-18T08:57:11.523Z,24.61
2018-08-18T08:59:41.854Z,24.72
2018-08-18T09:02:13.926Z,24.79
2018-08-18T09:04:43.400Z,24.88
2018-08-18T09:07:13.124Z,24.88
2018-08-18T09:09:42.955Z,24.85
2018-08-18T09:12:12.797Z,24.74
2018-08-18T09:14:42.645Z,24.92
2018-08-18T09:17:12.252Z,25.01
2018-08-18T09:19:42.006Z,25.09
2018-08-18T09:22:11.570Z,25.23
2018-08-18T09:24:41.259Z,25.25
2018-08-18T09:27:11.060Z,25.31
2018-08-18T09:29:47.059Z,25.32
2018-08-18T09:32:17.796Z,25.48
2018-08-18T09:34:54.658Z,25.32
2018-08-18T09:37:24.414Z,25.34
2018-08-18T09:39:54.119Z,25.51
2018-08-18T09:42:23.739Z,25.55
2018-08-18T09:44:54.362Z,25.58
2018-08-18T09:47:24.231Z,25.80
2018-08-18T09:49:53.870Z,25.97
2018-08-18T09:52:23.458Z,26.12
2018-08-18T09:54:53.292Z,26.42
2018-08-18T09:57:22.866Z,26.41
2018-08-18T09:59:52.275Z,26.46
2018-08-18T10:02:22.006Z,26.38
2018-08-18T10:04:51.597Z,26.70
2018-08-18T10:07:21.609Z,26.89
2018-08-18T10:09:51.424Z,27.01
2018-08-18T10:12:21.010Z,27.12
2018-08-18T10:14:51.058Z,26.97
2018-08-18T10:17:20.982Z,27.00
2018-08-18T10:19:50.847Z,27.02
2018-08-18T10:22:20.826Z,27.35
2018-08-18T10:24:50.680Z,27.58
2018-08-18T10:27:20.509Z,27.55
2018-08-18T10:29:50.081Z,27.68
2018-08-18T10:32:19.805Z,27.84
2018-08-18T10:34:49.439Z,27.91
2018-08-18T10:37:19.605Z,27.56
2018-08-18T10:39:51.142Z,27.84
2018-08-18T10:42:26.365Z,28.08
2018-08-18T10:45:03.253Z,28.08
2018-08-18T10:47:32.853Z,28.27
2018-08-18T10:50:13.425Z,28.59
2018-08-18T10:52:54.164Z,28.84
2018-08-18T10:55:23.734Z,28.92
2018-08-18T10:58:03.229Z,28.95
2018-08-18T11:00:33.755Z,29.30
2018-08-18T11:03:04.835Z,29.52
2018-08-18T11:05:34.200Z,29.33
2018-08-18T11:08:08.859Z,28.39
2018-08-18T11:10:39.828Z,28.60
2018-08-18T11:13:09.492Z,28.95
2018-08-18T11:15:39.292Z,29.25
2018-08-18T11:18:09.114Z,29.36
2018-08-18T11:20:38.795Z,29.75
2018-08-18T11:23:11.310Z,29.81
2018-08-18T11:25:51.719Z,30.03
2018-08-18T11:28:22.261Z,29.95
2018-08-18T11:30:52.923Z,29.88
2018-08-18T11:33:40.977Z,29.90
2018-08-18T11:36:11.506Z,29.94
2018-08-18T11:38:41.231Z,29.79
2018-08-18T11:41:10.946Z,29.62
2018-08-18T11:43:47.217Z,29.99
2018-08-18T11:46:17.337Z,30.10
2018-08-18T11:48:47.047Z,30.22
2018-08-18T11:51:16.602Z,30.19
2018-08-18T11:53:57.196Z,30.36
2018-08-18T11:56:26.750Z,30.25
2018-08-18T11:59:06.877Z,30.50
2018-08-18T12:01:38.306Z,30.50
2018-08-18T12:04:07.674Z,30.48
2018-08-18T12:06:43.115Z,30.69
2018-08-18T12:09:12.866Z,30.78
2018-08-18T12:11:42.690Z,30.20
2018-08-18T12:14:12.055Z,29.91
2018-08-18T12:16:41.732Z,29.32
2018-08-18T12:19:14.167Z,29.35
2018-08-18T12:21:44.464Z,29.73
2018-08-18T12:24:20.504Z,30.20
2018-08-18T12:27:01.245Z,30.56
2018-08-18T12:29:31.448Z,30.73
2018-08-18T12:32:00.956Z,30.88
2018-08-18T12:34:30.618Z,31.25
2018-08-18T12:37:00.463Z,31.13
2018-08-18T12:39:29.990Z,30.69
2018-08-18T12:41:59.496Z,30.69
2018-08-18T12:44:33.334Z,30.60
2018-08-18T12:47:04.380Z,30.20
2018-08-18T12:49:33.882Z,30.18
2018-08-18T12:52:03.524Z,30.70
2018-08-18T12:54:33.563Z,30.95
2018-08-18T12:57:03.075Z,31.31
2018-08-18T12:59:32.732Z,31.68
2018-08-18T13:02:02.657Z,31.35
2018-08-18T13:04:32.430Z,31.02
2018-08-18T13:07:02.559Z,31.26
2018-08-18T13:09:32.272Z,31.44
2018-08-18T13:12:02.635Z,31.49
2018-08-18T13:14:32.430Z,31.50
2018-08-18T13:17:01.930Z,31.58
2018-08-18T13:19:33.479Z,31.56
2018-08-18T13:22:03.246Z,31.68
2018-08-18T13:24:33.086Z,31.76
2018-08-18T13:27:03.470Z,31.77
2018-08-18T13:29:33.732Z,31.58
2018-08-18T13:32:03.444Z,31.78
2018-08-18T13:34:33.292Z,32.04
2018-08-18T13:37:02.717Z,31.85
2018-08-18T13:39:32.211Z,31.78
2018-08-18T13:42:12.998Z,31.38
2018-08-18T13:44:43.358Z,31.25
2018-08-18T13:47:12.860Z,31.21
2018-08-18T13:49:42.822Z,30.47
2018-08-18T13:52:12.522Z,29.89
2018-08-18T13:54:47.337Z,29.56
2018-08-18T13:57:20.919Z,29.94
2018-08-18T13:59:50.492Z,30.36
2018-08-18T14:02:20.274Z,30.48
2018-08-18T14:04:49.632Z,29.83
2018-08-18T14:07:19.212Z,29.53
2018-08-18T14:09:58.816Z,29.31
2018-08-18T14:12:29.655Z,28.93
2018-08-18T14:14:59.367Z,28.75
2018-08-18T14:17:29.477Z,28.64
2018-08-18T14:19:58.959Z,28.67
2018-08-18T14:22:28.390Z,28.54
2018-08-18T14:24:57.873Z,28.93
2018-08-18T14:27:28.251Z,29.38
2018-08-18T14:29:57.809Z,29.47
2018-08-18T14:32:29.171Z,29.49
2018-08-18T14:35:07.133Z,29.14
2018-08-18T14:37:41.389Z,28.86
2018-08-18T14:40:15.244Z,28.95
2018-08-18T14:42:45.741Z,29.36
2018-08-18T14:45:16.389Z,29.53
2018-08-18T14:47:47.134Z,29.76
2018-08-18T14:50:19.796Z,29.96
2018-08-18T14:52:49.445Z,30.13
2018-08-18T14:55:19.214Z,30.02
2018-08-18T14:57:55.882Z,30.17
2018-08-18T15:00:25.755Z,30.23
2018-08-18T15:02:55.709Z,30.22
2018-08-18T15:05:25.452Z,30.12
2018-08-18T15:07:56.425Z,30.27
2018-08-18T15:10:37.370Z,30.15
2018-08-18T15:13:07.555Z,30.12
2018-08-18T15:15:37.923Z,30.25
2018-08-18T15:18:10.130Z,30.15
2018-08-18T15:20:40.761Z,30.03
2018-08-18T15:23:11.332Z,30.15
2018-08-18T15:25:42.037Z,30.15
2018-08-18T15:28:12.911Z,30.08
2018-08-18T15:30:43.932Z,30.01
2018-08-18T15:33:18.393Z,29.83
2018-08-18T15:35:48.229Z,29.81
2018-08-18T15:38:17.785Z,29.86
2018-08-18T15:40:47.771Z,29.64
2018-08-18T15:43:17.608Z,29.77
2018-08-18T15:45:58.844Z,29.86
2018-08-18T15:48:28.387Z,29.98
2018-08-18T15:50:58.055Z,30.03
2018-08-18T15:53:56.257Z,30.03
2018-08-18T15:56:26.913Z,29.90
2018-08-18T15:58:57.141Z,29.67
2018-08-18T16:01:28.190Z,29.67
2018-08-18T16:04:00.079Z,29.29
2018-08-18T16:06:29.658Z,29.36
2018-08-18T16:08:59.181Z,29.25
2018-08-18T16:11:29.410Z,29.33
2018-08-18T16:13:59.199Z,28.99
2018-08-18T16:16:28.658Z,28.92
2018-08-18T16:19:04.000Z,28.84
2018-08-18T16:21:34.708Z,28.74
2018-08-18T16:24:04.588Z,28.57
2018-08-18T16:26:34.023Z,28.37
2018-08-18T16:29:03.917Z,28.21
2018-08-18T16:31:33.567Z,28.20
2018-08-18T16:34:03.386Z,28.05
2018-08-18T16:36:38.139Z,27.86
2018-08-18T16:39:07.892Z,27.79
2018-08-18T16:41:37.502Z,27.72
2018-08-18T16:44:07.530Z,27.66
2018-08-18T16:46:37.080Z,27.48
2018-08-18T16:49:06.767Z,27.44
2018-08-18T16:51:36.862Z,27.28
2018-08-18T16:54:18.843Z,27.24
2018-08-18T16:56:48.597Z,27.22
2018-08-18T16:59:18.334Z,27.11
2018-08-18T17:01:47.942Z,27.16
2018-08-18T17:04:34.650Z,27.11
2018-08-18T17:07:09.492Z,27.12
2018-08-18T17:09:41.794Z,27.03
2018-08-18T17:12:22.511Z,26.91
2018-08-18T17:14:52.870Z,26.98
2018-08-18T17:17:25.028Z,26.87
2018-08-18T17:19:54.527Z,26.84
2018-08-18T17:22:24.205Z,26.82
2018-08-18T17:24:53.834Z,26.80
2018-08-18T17:27:23.536Z,26.70
2018-08-18T17:29:53.589Z,26.64
2018-08-18T17:32:24.079Z,26.59
2018-08-18T17:34:53.569Z,26.41
2018-08-18T17:37:23.246Z,26.25
2018-08-18T17:39:52.980Z,26.13
2018-08-18T17:42:22.850Z,26.20
2018-08-18T17:44:52.258Z,26.09
2018-08-18T17:47:22.140Z,26.17
2018-08-18T17:49:54.928Z,26.13
2018-08-18T17:52:24.792Z,26.04
2018-08-18T17:55:11.693Z,25.96
2018-08-18T17:57:41.441Z,25.97
2018-08-18T18:00:19.795Z,25.98
2018-08-18T18:02:54.722Z,25.90
2018-08-18T18:05:27.656Z,26.01
2018-08-18T18:08:00.481Z,25.90
2018-08-18T18:10:32.676Z,25.66
2018-08-18T18:13:04.382Z,25.51
2018-08-18T18:15:37.086Z,25.42
2018-08-18T18:18:08.303Z,25.25
2018-08-18T18:20:55.424Z,25.17
2018-08-18T18:23:25.112Z,25.06
2018-08-18T18:25:54.573Z,25.06
2018-08-18T18:28:24.486Z,25.01
2018-08-18T18:30:54.690Z,24.95
2018-08-18T18:33:24.195Z,24.90
2018-08-18T18:35:54.326Z,24.77
2018-08-18T18:38:26.165Z,24.73
2018-08-18T18:40:57.484Z,24.55
2018-08-18T18:43:27.230Z,24.43
2018-08-18T18:45:56.966Z,24.28
2018-08-18T18:48:26.823Z,24.17
2018-08-18T18:50:56.683Z,24.21
2018-08-18T18:53:27.370Z,24.13
2018-08-18T18:55:57.105Z,24.16
2018-08-18T18:58:32.955Z,24.11
2018-08-18T19:01:04.795Z,24.14
2018-08-18T19:03:34.666Z,24.21
2018-08-18T19:06:05.806Z,24.16
2018-08-18T19:08:51.015Z,24.23
2018-08-18T19:11:21.726Z,24.29
2018-08-18T19:13:51.934Z,24.22
2018-08-18T19:16:21.800Z,24.23
2018-08-18T19:18:52.455Z,24.29
2018-08-18T19:21:22.662Z,24.31
2018-08-18T19:23:52.358Z,24.30
2018-08-18T19:26:22.229Z,24.33
2018-08-18T19:28:51.559Z,24.23
2018-08-18T19:31:25.147Z,24.17
2018-08-18T19:34:03.527Z,24.12
2018-08-18T19:36:33.672Z,24.09
2018-08-18T19:39:03.577Z,24.07
2018-08-18T19:41:32.949Z,23.93
2018-08-18T19:44:02.533Z,23.79
2018-08-18T19:46:32.173Z,23.80
2018-08-18T19:49:02.172Z,23.78
2018-08-18T19:51:31.798Z,23.84
2018-08-18T19:54:01.477Z,23.85
2018-08-18T19:56:31.225Z,23.92
2018-08-18T19:59:01.010Z,23.94
2018-08-18T20:01:30.556Z,23.95
2018-08-18T20:04:11.519Z,23.94
2018-08-18T20:06:42.125Z,23.89
2018-08-18T20:09:13.307Z,23.90
2018-08-18T20:11:43.416Z,23.79
2018-08-18T20:14:13.068Z,23.76
2018-08-18T20:16:42.771Z,23.75
2018-08-18T20:19:12.766Z,23.54
2018-08-18T20:21:42.533Z,23.44
2018-08-18T20:24:12.277Z,23.38
2018-08-18T20:26:41.819Z,23.46
2018-08-18T20:29:11.702Z,23.21
2018-08-18T20:31:52.698Z,23.07
2018-08-18T20:34:22.348Z,22.81
2018-08-18T20:36:52.146Z,22.76
2018-08-18T20:39:22.367Z,22.87
2018-08-18T20:41:52.203Z,22.91
2018-08-18T20:44:21.946Z,22.93
2018-08-18T20:46:52.218Z,22.80
2018-08-18T20:49:21.573Z,22.89
2018-08-18T20:51:51.279Z,22.93
2018-08-18T20:54:21.058Z,23.03
2018-08-18T20:56:50.858Z,23.05
2018-08-18T20:59:20.415Z,23.01
2018-08-18T21:19:12.099Z,22.42
2018-08-18T21:39:05.529Z,22.07
2018-08-18T21:41:39.834Z,22.08
2018-08-18T21:44:10.919Z,22.08
2018-08-18T21:46:41.151Z,22.10
2018-08-18T21:49:11.249Z,22.12
2018-08-18T21:51:40.954Z,22.09
2018-08-18T21:54:10.905Z,22.07
2018-08-18T21:56:41.790Z,22.09
2018-08-18T21:59:12.750Z,22.01
2018-08-18T22:01:42.541Z,22.08
2018-08-18T22:04:11.867Z,22.11
2018-08-18T22:24:03.985Z,21.38
2018-08-18T22:26:33.585Z,21.39
2018-08-18T22:46:25.273Z,20.98
2018-08-18T22:48:54.976Z,21.03
2018-08-18T23:26:28.155Z,21.09
2018-08-18T23:28:58.209Z,21.01
2018-08-18T23:31:28.023Z,20.96
2018-08-18T23:33:57.813Z,20.89
2018-08-18T23:36:27.363Z,20.80
2018-08-18T23:38:58.861Z,20.73
2018-08-18T23:41:28.502Z,20.77
